Home   Weather   China   Lhasa   Past weeks
Flag for China

Past Weather in Lhasa, Tibet, China — Yesterday and Last 2 Weeks

Currently: 46 °F. Partly cloudy. (Weather station: Kathmandu Airport, China). See more current weather

Past Weather in Lhasa — Graph

°F

Lhasa Temperature Yesterday

Maximum temperature yesterday: 55 °F (at 4:20 pm)
Minimum temperature yesterday: 45 °F (at 7:50 am)
Average temperature yesterday: 49 °F

High & Low Weather Summary for the Past Weeks

 TemperatureHumidityPressure
High64 °F (Jan 16, 3:50 pm)100% (Jan 13, 6:50 am)30.27 "Hg (Jan 13, 6:50 am)
Low39 °F (Jan 16, 9:50 am)25% (Jan 19, 2:50 pm)29.89 "Hg (Jan 22, 6:50 pm)
Average50 °F79%30.04 "Hg
* Reported Jan 12 10:20 pm — Jan 27 10:20 pm, Lhasa. Weather by CustomWeather, © 2022

Note: Actual official high and low records may vary slightly from our data, if they occured in-between our weather recording intervals... More about our weather records

Lhasa Weather History for the Previous 24 Hours

Scroll right to see more
 ConditionsComfort  
Time TempWeatherWind HumidityBarometerVisibility
10:20 pm
Thu, Jan 27
48 °FPartly cloudy.5 mph82%29.98 "Hg4 mi
9:50 pm48 °FPartly cloudy.5 mph76%29.98 "Hg4 mi
9:20 pm48 °FPartly cloudy.6 mph76%29.95 "Hg4 mi
8:20 pm50 °FBroken clouds.7 mph71%29.95 "Hg4 mi
7:50 pm50 °FScattered clouds.9 mph71%29.95 "Hg4 mi
7:20 pm52 °FScattered clouds.10 mph62%29.92 "Hg4 mi
6:50 pm54 °FScattered clouds.12 mph58%29.92 "Hg4 mi
6:20 pm55 °FScattered clouds.12 mph55%29.92 "Hg4 mi
5:50 pm55 °FScattered clouds.12 mph55%29.92 "Hg4 mi
5:20 pm57 °FScattered clouds.12 mph51%29.92 "Hg4 mi
4:50 pm57 °FScattered clouds.13 mph48%29.92 "Hg4 mi
4:20 pm55 °FScattered clouds.No wind47%29.95 "Hg4 mi
3:50 pm55 °FScattered clouds.3 mph44%29.95 "Hg4 mi
3:20 pm55 °FScattered clouds.3 mph47%29.98 "Hg4 mi
2:50 pm57 °FScattered clouds.3 mph48%29.98 "Hg4 mi
2:20 pm54 °FScattered clouds.2 mph51%30.01 "Hg4 mi
1:50 pm55 °FScattered clouds.5 mph47%30.01 "Hg4 mi
1:20 pm54 °FHaze.3 mph58%30.04 "Hg3 mi
12:50 pm52 °FHaze.5 mph62%30.04 "Hg2 mi
12:20 pm50 °FFog.3 mph71%30.04 "Hg2 mi
11:50 am48 °FFog.3 mph76%30.04 "Hg1 mi
11:20 am46 °FFog.3 mph87%30.04 "Hg1 mi
10:50 am43 °FFog.No wind93%30.04 "Hg1 mi
10:20 am41 °FFog.2 mph100%30.01 "Hg1 mi
9:50 am41 °FFog.2 mph93%30.01 "Hg1 mi
9:20 am39 °FFog.3 mph100%29.98 "Hg2 mi
8:50 am41 °FFog.3 mph93%29.98 "Hg2 mi
8:20 am41 °FFog.2 mph93%29.95 "Hg3 mi
7:50 am41 °FFog.3 mph93%29.95 "Hg3 mi
6:50 am43 °FFog.No wind87%29.95 "Hg3 mi
5:50 am43 °FFog.2 mph87%29.95 "Hg3 mi
4:50 am43 °FFog.No wind87%29.98 "Hg3 mi
4:20 am43 °FPartly cloudy.3 mph87%29.98 "Hg4 mi
3:50 am43 °FPartly cloudy.2 mph87%29.98 "Hg4 mi
3:20 am43 °FPartly cloudy.3 mph87%29.98 "Hg4 mi
2:50 am43 °FPartly cloudy.5 mph87%30.01 "Hg4 mi
2:20 am43 °FPartly cloudy.3 mph87%30.01 "Hg4 mi
1:50 am43 °FPartly cloudy.3 mph87%30.01 "Hg4 mi
1:20 am43 °FPassing clouds.6 mph87%30.01 "Hg4 mi
12:20 am43 °FPassing clouds.5 mph87%30.01 "Hg4 mi
11:50 pm
Wed, Jan 26
45 °FPassing clouds.3 mph81%30.01 "Hg4 mi
11:20 pm46 °FPassing clouds.3 mph76%30.01 "Hg4 mi
Weather by CustomWeather, © 2022

See weather overview